createdAt,value
2022-09-12T00:00:07.231Z,26.26
2022-09-12T00:02:39.643Z,26.22
2022-09-12T00:05:08.258Z,26.20
2022-09-12T00:07:36.357Z,26.19
2022-09-12T00:10:04.983Z,26.14
2022-09-12T00:12:34.918Z,26.12
2022-09-12T00:15:02.949Z,26.15
2022-09-12T00:17:30.429Z,26.07
2022-09-12T00:19:59.488Z,26.13
2022-09-12T00:22:27.203Z,26.15
2022-09-12T00:24:54.917Z,26.11
2022-09-12T00:27:23.015Z,26.09
2022-09-12T00:29:51.154Z,26.09
2022-09-12T00:32:19.092Z,26.10
2022-09-12T00:34:46.718Z,26.14
2022-09-12T00:37:14.278Z,26.13
2022-09-12T00:39:42.198Z,26.16
2022-09-12T00:42:12.450Z,26.12
2022-09-12T00:44:39.859Z,26.08
2022-09-12T00:47:31.031Z,26.05
2022-09-12T00:50:07.267Z,26.05
2022-09-12T00:52:44.102Z,25.98
2022-09-12T00:55:29.224Z,25.95
2022-09-12T00:58:04.940Z,25.93
2022-09-12T01:00:33.495Z,25.96
2022-09-12T01:03:06.341Z,25.96
2022-09-12T01:05:37.799Z,25.96
2022-09-12T01:08:06.398Z,25.92
2022-09-12T01:10:38.316Z,25.96
2022-09-12T01:13:08.065Z,26.01
2022-09-12T01:15:39.251Z,25.95
2022-09-12T01:18:09.598Z,26.00
2022-09-12T01:20:47.004Z,26.03
2022-09-12T01:23:34.756Z,26.06
2022-09-12T01:26:24.299Z,26.04
2022-09-12T01:29:29.585Z,26.03
2022-09-12T01:32:03.385Z,26.00
2022-09-12T01:34:31.341Z,25.95
2022-09-12T01:37:21.813Z,25.89
2022-09-12T01:40:02.417Z,25.87
2022-09-12T01:42:47.855Z,25.82
2022-09-12T01:45:30.456Z,25.73
2022-09-12T01:48:02.513Z,25.72
2022-09-12T01:50:36.571Z,25.69
2022-09-12T01:53:19.172Z,25.65
2022-09-12T01:55:52.991Z,25.59
2022-09-12T01:58:30.347Z,25.54
2022-09-12T02:01:10.341Z,25.47
2022-09-12T02:03:51.502Z,25.48
2022-09-12T02:06:48.813Z,25.52
2022-09-12T02:09:39.950Z,25.48
2022-09-12T02:12:12.476Z,25.54
2022-09-12T02:14:47.105Z,25.60
2022-09-12T02:17:26.968Z,25.67
2022-09-12T02:20:06.371Z,25.63
2022-09-12T02:22:37.932Z,25.65
2022-09-12T02:25:07.010Z,25.66
2022-09-12T02:27:42.186Z,25.63
2022-09-12T02:30:11.161Z,25.62
2022-09-12T02:32:45.057Z,25.66
2022-09-12T02:35:55.802Z,25.62
2022-09-12T02:38:52.297Z,25.59
2022-09-12T02:41:31.176Z,25.62
2022-09-12T02:44:15.000Z,25.62
2022-09-12T02:47:06.129Z,25.66
2022-09-12T02:49:42.797Z,25.64
2022-09-12T02:52:10.918Z,25.69
2022-09-12T02:54:39.443Z,25.64
2022-09-12T02:57:22.822Z,25.62
2022-09-12T02:59:54.410Z,25.63
2022-09-12T03:02:42.372Z,25.60
2022-09-12T03:05:22.332Z,25.60
2022-09-12T03:08:14.980Z,25.60
2022-09-12T03:11:02.612Z,25.56
2022-09-12T03:13:36.738Z,25.54
2022-09-12T03:16:07.887Z,25.59
2022-09-12T03:19:03.519Z,25.57
2022-09-12T03:21:37.192Z,25.57
2022-09-12T03:24:20.161Z,25.56
2022-09-12T03:26:58.924Z,25.58
2022-09-12T03:29:28.753Z,25.58
2022-09-12T03:31:59.351Z,25.58
2022-09-12T03:34:28.635Z,25.53
2022-09-12T03:36:57.070Z,25.57
2022-09-12T03:39:26.698Z,25.61
2022-09-12T03:41:56.069Z,25.63
2022-09-12T03:44:25.157Z,25.63
2022-09-12T03:46:52.726Z,25.66
2022-09-12T03:49:20.765Z,25.62
2022-09-12T03:51:48.731Z,25.63
2022-09-12T03:54:16.634Z,25.65
2022-09-12T03:56:44.386Z,25.69
2022-09-12T03:59:12.827Z,25.68
2022-09-12T04:01:42.153Z,25.70
2022-09-12T04:04:10.510Z,25.71
2022-09-12T04:06:38.571Z,25.73
2022-09-12T04:09:06.159Z,25.71
2022-09-12T04:11:33.723Z,25.73
2022-09-12T04:14:02.079Z,25.73
2022-09-12T04:16:29.623Z,25.76
2022-09-12T04:18:57.821Z,25.74
2022-09-12T04:21:25.906Z,25.73
2022-09-12T04:23:53.721Z,25.73
2022-09-12T04:26:21.644Z,25.68
2022-09-12T04:28:55.367Z,25.70
2022-09-12T04:31:24.127Z,25.64
2022-09-12T04:34:00.244Z,25.61
2022-09-12T04:36:29.814Z,25.48
2022-09-12T04:38:57.756Z,25.51
2022-09-12T04:41:31.905Z,25.55
2022-09-12T04:44:02.980Z,25.56
2022-09-12T04:46:33.662Z,25.55
2022-09-12T04:49:02.453Z,25.53
2022-09-12T04:51:36.454Z,25.52
2022-09-12T04:54:07.938Z,25.46
2022-09-12T04:56:40.073Z,25.40
2022-09-12T04:59:09.235Z,25.30
2022-09-12T05:01:37.343Z,25.35
2022-09-12T05:04:05.382Z,25.28
2022-09-12T05:06:36.193Z,25.34
2022-09-12T05:09:06.667Z,25.30
2022-09-12T05:12:03.733Z,25.33
2022-09-12T05:14:28.931Z,25.32
2022-09-12T05:17:00.776Z,25.33
2022-09-12T05:19:29.539Z,25.28
2022-09-12T05:21:57.242Z,25.19
2022-09-12T05:24:26.752Z,25.14
2022-09-12T05:26:55.561Z,25.24
2022-09-12T05:29:23.197Z,25.24
2022-09-12T05:31:53.444Z,25.30
2022-09-12T05:34:22.067Z,25.26
2022-09-12T05:36:50.486Z,25.26
2022-09-12T05:39:19.067Z,25.29
2022-09-12T05:41:47.921Z,25.35
2022-09-12T05:44:15.709Z,25.37
2022-09-12T05:46:46.054Z,25.35
2022-09-12T05:49:17.379Z,25.33
2022-09-12T05:51:46.404Z,25.32
2022-09-12T05:54:18.354Z,25.37
2022-09-12T05:56:46.400Z,25.40
2022-09-12T05:59:15.507Z,25.43
2022-09-12T06:01:44.937Z,25.44
2022-09-12T06:04:13.321Z,25.47
2022-09-12T06:06:49.121Z,25.49
2022-09-12T06:09:18.092Z,25.48
2022-09-12T06:11:47.847Z,25.44
2022-09-12T06:14:17.950Z,25.48
2022-09-12T06:16:47.643Z,25.53
2022-09-12T06:19:21.064Z,25.62
2022-09-12T06:21:50.173Z,25.57
2022-09-12T06:24:19.233Z,25.58
2022-09-12T06:26:48.302Z,25.56
2022-09-12T06:29:16.678Z,25.54
2022-09-12T06:31:44.950Z,25.63
2022-09-12T06:34:16.642Z,25.59
2022-09-12T06:36:46.836Z,25.63
2022-09-12T06:39:20.022Z,25.72
2022-09-12T06:41:50.765Z,25.70
2022-09-12T06:44:22.680Z,25.73
2022-09-12T06:46:50.891Z,25.72
2022-09-12T06:49:18.148Z,25.66
2022-09-12T06:51:45.701Z,25.51
2022-09-12T06:54:15.829Z,25.61
2022-09-12T06:56:45.095Z,25.66
2022-09-12T06:59:13.199Z,25.65
2022-09-12T07:01:42.368Z,25.74
2022-09-12T07:04:10.922Z,25.72
2022-09-12T07:06:41.418Z,25.63
2022-09-12T07:09:20.304Z,25.68
2022-09-12T07:11:47.986Z,25.74
2022-09-12T07:14:16.517Z,25.89
2022-09-12T07:16:45.596Z,25.92
2022-09-12T07:19:13.890Z,26.06
2022-09-12T07:21:42.448Z,26.25
2022-09-12T07:24:11.401Z,26.40
2022-09-12T07:26:42.320Z,26.55
2022-09-12T07:29:36.689Z,26.71
2022-09-12T07:32:07.893Z,26.88
2022-09-12T07:34:35.741Z,27.03
2022-09-12T07:37:03.404Z,27.16
2022-09-12T07:39:31.145Z,27.24
2022-09-12T07:42:01.335Z,27.22
2022-09-12T07:44:29.852Z,27.28
2022-09-12T07:46:57.479Z,27.23
2022-09-12T07:49:26.146Z,27.34
2022-09-12T07:51:54.398Z,27.39
2022-09-12T07:54:22.015Z,27.47
2022-09-12T07:56:50.146Z,27.50
2022-09-12T07:59:41.412Z,27.57
2022-09-12T08:02:17.126Z,27.58
2022-09-12T08:04:45.922Z,27.59
2022-09-12T08:07:13.663Z,27.62
2022-09-12T08:09:41.418Z,27.65
2022-09-12T08:12:09.519Z,27.69
2022-09-12T08:14:37.351Z,27.74
2022-09-12T08:17:05.244Z,27.76
2022-09-12T08:19:32.834Z,27.84
2022-09-12T08:22:00.675Z,27.92
2022-09-12T08:24:28.430Z,28.00
2022-09-12T08:26:56.580Z,28.05
2022-09-12T08:29:24.752Z,28.19
2022-09-12T08:31:57.013Z,28.31
2022-09-12T08:34:26.779Z,28.33
2022-09-12T08:36:55.346Z,28.37
2022-09-12T08:39:24.862Z,28.38
2022-09-12T08:42:20.647Z,28.51
2022-09-12T08:45:04.040Z,28.63
2022-09-12T08:47:43.682Z,28.70
2022-09-12T08:50:12.078Z,28.77
2022-09-12T08:52:55.125Z,28.86
2022-09-12T08:55:31.960Z,28.91
2022-09-12T08:58:15.200Z,28.94
2022-09-12T09:00:51.823Z,28.97
2022-09-12T09:03:28.806Z,29.05
2022-09-12T09:06:32.333Z,29.19
2022-09-12T09:09:06.877Z,29.34
2022-09-12T09:11:40.232Z,29.44
2022-09-12T09:14:44.334Z,29.53
2022-09-12T09:17:19.816Z,29.56
2022-09-12T09:20:01.112Z,29.54
2022-09-12T09:22:53.630Z,29.49
2022-09-12T09:25:35.205Z,29.44
2022-09-12T09:28:08.358Z,29.36
2022-09-12T09:30:37.687Z,29.33
2022-09-12T09:33:10.690Z,29.33
2022-09-12T09:35:46.413Z,29.31
2022-09-12T09:38:19.928Z,29.33
2022-09-12T09:41:28.773Z,29.41
2022-09-12T09:43:57.945Z,29.35
2022-09-12T09:46:26.966Z,29.49
2022-09-12T09:48:55.762Z,29.53
2022-09-12T09:51:39.088Z,29.60
2022-09-12T09:54:12.663Z,29.63
2022-09-12T09:56:42.974Z,29.65
2022-09-12T09:59:20.325Z,29.62
2022-09-12T10:02:04.406Z,29.72
2022-09-12T10:04:40.617Z,29.79
2022-09-12T10:07:19.901Z,29.83
2022-09-12T10:10:08.224Z,29.89
2022-09-12T10:12:35.566Z,29.99
2022-09-12T10:15:16.615Z,30.08
2022-09-12T10:17:46.930Z,30.18
2022-09-12T10:20:47.048Z,30.23
2022-09-12T10:23:41.413Z,30.25
2022-09-12T10:26:15.934Z,30.27
2022-09-12T10:28:51.910Z,30.32
2022-09-12T10:31:36.360Z,30.37
2022-09-12T10:34:06.050Z,30.38
2022-09-12T10:36:40.204Z,30.41
2022-09-12T10:39:16.842Z,30.50
2022-09-12T10:41:45.044Z,30.65
2022-09-12T10:44:29.904Z,30.63
2022-09-12T10:46:59.366Z,30.69
2022-09-12T10:49:32.083Z,30.73
2022-09-12T10:52:18.211Z,30.64
2022-09-12T10:54:45.971Z,30.70
2022-09-12T10:57:26.685Z,30.75
2022-09-12T11:00:17.974Z,30.82
2022-09-12T11:02:53.411Z,30.78
2022-09-12T11:05:37.595Z,30.89
2022-09-12T11:08:51.431Z,30.88
2022-09-12T11:11:44.278Z,30.96
2022-09-12T11:14:45.967Z,30.96
2022-09-12T11:17:43.272Z,30.91
2022-09-12T11:20:16.483Z,30.89
2022-09-12T11:22:59.882Z,30.99
2022-09-12T11:25:48.587Z,30.93
2022-09-12T11:28:34.147Z,30.93
2022-09-12T11:31:19.610Z,30.76
2022-09-12T11:33:52.405Z,30.77
2022-09-12T11:36:47.608Z,30.80
2022-09-12T11:39:24.407Z,30.81
2022-09-12T11:41:58.500Z,30.77
2022-09-12T11:44:42.920Z,30.81
2022-09-12T11:47:15.070Z,30.77
2022-09-12T11:49:54.710Z,30.93
2022-09-12T11:52:42.844Z,30.94
2022-09-12T11:55:26.682Z,30.93
2022-09-12T11:57:58.446Z,30.96
2022-09-12T12:00:38.415Z,31.02
2022-09-12T12:03:28.322Z,31.06
2022-09-12T12:06:08.025Z,31.14
2022-09-12T12:08:44.308Z,31.16
2022-09-12T12:11:31.514Z,31.23
2022-09-12T12:14:13.608Z,31.15
2022-09-12T12:16:42.037Z,31.14
2022-09-12T12:19:15.509Z,31.12
2022-09-12T12:21:48.588Z,31.17
2022-09-12T12:24:26.851Z,31.19
2022-09-12T12:27:03.979Z,31.29
2022-09-12T12:29:45.968Z,31.22
2022-09-12T12:32:16.621Z,31.25
2022-09-12T12:34:46.197Z,31.29
2022-09-12T12:37:19.959Z,31.29
2022-09-12T12:39:48.454Z,31.27
2022-09-12T12:42:31.635Z,31.34
2022-09-12T12:45:00.284Z,31.22
2022-09-12T12:47:43.317Z,31.29
2022-09-12T12:50:10.629Z,31.26
2022-09-12T12:52:56.153Z,31.27
2022-09-12T12:55:34.453Z,31.20
2022-09-12T12:58:04.076Z,31.22
2022-09-12T13:00:41.807Z,31.23
2022-09-12T13:03:27.806Z,31.23
2022-09-12T13:06:02.818Z,31.19
2022-09-12T13:08:39.962Z,31.11
2022-09-12T13:11:07.712Z,31.11
2022-09-12T13:13:39.330Z,31.08
2022-09-12T13:16:08.081Z,31.07
2022-09-12T13:18:49.429Z,31.11
2022-09-12T13:21:21.916Z,31.13
2022-09-12T13:24:13.514Z,31.12
2022-09-12T13:26:47.290Z,31.09
2022-09-12T13:29:25.166Z,30.90
2022-09-12T13:31:59.648Z,30.87
2022-09-12T13:34:43.072Z,30.79
2022-09-12T13:37:29.875Z,30.77
2022-09-12T13:40:36.765Z,30.78
2022-09-12T13:43:18.047Z,30.59
2022-09-12T13:45:48.061Z,30.61
2022-09-12T13:48:22.752Z,30.62
2022-09-12T13:50:56.385Z,30.61
2022-09-12T13:53:32.523Z,30.60
2022-09-12T13:56:01.762Z,30.54
2022-09-12T13:58:32.172Z,30.64
2022-09-12T14:01:15.378Z,30.61
2022-09-12T14:04:09.209Z,30.58
2022-09-12T14:06:47.597Z,30.54
2022-09-12T14:09:25.159Z,30.63
2022-09-12T14:11:54.099Z,30.70
2022-09-12T14:14:29.696Z,30.61
2022-09-12T14:16:56.984Z,30.63
2022-09-12T14:19:26.470Z,30.51
2022-09-12T14:21:54.936Z,30.52
2022-09-12T14:24:25.636Z,30.55
2022-09-12T14:26:57.083Z,30.59
2022-09-12T14:29:25.644Z,30.61
2022-09-12T14:32:04.754Z,30.46
2022-09-12T14:34:39.903Z,30.55
2022-09-12T14:37:08.261Z,30.61
2022-09-12T14:39:43.140Z,30.43
2022-09-12T14:42:13.498Z,30.48
2022-09-12T14:44:53.691Z,30.46
2022-09-12T14:47:25.134Z,30.46
2022-09-12T14:49:53.148Z,30.49
2022-09-12T14:52:31.304Z,30.35
2022-09-12T14:55:00.484Z,30.45
2022-09-12T14:57:44.788Z,30.48
2022-09-12T15:00:12.433Z,30.59
2022-09-12T15:02:45.102Z,30.54
2022-09-12T15:05:12.342Z,30.64
2022-09-12T15:07:57.303Z,30.70
2022-09-12T15:10:31.942Z,30.66
2022-09-12T15:13:12.750Z,30.78
2022-09-12T15:15:55.146Z,30.84
2022-09-12T15:18:26.066Z,30.93
2022-09-12T15:21:02.010Z,30.97
2022-09-12T15:23:40.414Z,30.96
2022-09-12T15:26:10.671Z,30.90
2022-09-12T15:28:38.572Z,30.87
2022-09-12T15:31:13.211Z,30.96
2022-09-12T15:33:43.209Z,30.99
2022-09-12T15:36:20.121Z,30.97
2022-09-12T15:38:52.953Z,30.91
2022-09-12T15:41:31.669Z,30.95
2022-09-12T15:44:11.626Z,30.97
2022-09-12T15:46:43.663Z,30.99
2022-09-12T15:49:11.108Z,30.95
2022-09-12T15:51:47.517Z,30.90
2022-09-12T15:54:17.207Z,30.75
2022-09-12T15:56:45.324Z,30.67
2022-09-12T15:59:14.069Z,30.65
2022-09-12T16:01:41.573Z,30.58
2022-09-12T16:04:24.081Z,30.59
2022-09-12T16:06:56.107Z,30.66
2022-09-12T16:09:24.767Z,30.70
2022-09-12T16:11:52.744Z,30.73
2022-09-12T16:14:20.448Z,30.80
2022-09-12T16:16:57.898Z,30.84
2022-09-12T16:19:27.577Z,30.91
2022-09-12T16:21:54.804Z,30.93
2022-09-12T16:24:22.586Z,30.87
2022-09-12T16:27:00.434Z,30.86
2022-09-12T16:29:28.886Z,30.83
2022-09-12T16:31:56.260Z,30.81
2022-09-12T16:34:23.577Z,30.77
2022-09-12T16:36:51.177Z,30.77
2022-09-12T16:39:18.752Z,30.73
2022-09-12T16:41:46.398Z,30.73
2022-09-12T16:44:13.857Z,30.74
2022-09-12T16:46:41.340Z,30.73
2022-09-12T16:49:11.378Z,30.61
2022-09-12T16:51:38.855Z,30.66
2022-09-12T16:54:06.409Z,30.68
2022-09-12T16:56:33.782Z,30.71
2022-09-12T16:59:01.205Z,30.71
2022-09-12T17:01:28.844Z,30.65
2022-09-12T17:03:58.278Z,30.60
2022-09-12T17:06:26.947Z,30.53
2022-09-12T17:08:59.273Z,30.47
2022-09-12T17:11:33.472Z,30.39
2022-09-12T17:14:05.347Z,30.30
2022-09-12T17:16:41.782Z,30.27
2022-09-12T17:19:13.044Z,30.26
2022-09-12T17:21:40.356Z,30.25
2022-09-12T17:24:07.812Z,30.18
2022-09-12T17:26:35.366Z,30.09
2022-09-12T17:29:03.416Z,30.03
2022-09-12T17:31:31.382Z,30.00
2022-09-12T17:34:01.641Z,29.98
2022-09-12T17:36:30.005Z,30.00
2022-09-12T17:38:58.039Z,29.95
2022-09-12T17:41:28.071Z,29.89
2022-09-12T17:43:57.918Z,29.88
2022-09-12T17:46:31.456Z,29.84
2022-09-12T17:49:00.645Z,29.75
2022-09-12T17:51:31.079Z,29.80
2022-09-12T17:54:18.476Z,29.73
2022-09-12T17:56:50.290Z,29.75
2022-09-12T17:59:20.760Z,29.74
2022-09-12T18:02:07.784Z,29.69
2022-09-12T18:04:35.542Z,29.71
2022-09-12T18:07:03.234Z,29.70
2022-09-12T18:09:31.593Z,29.66
2022-09-12T18:12:03.094Z,29.65
2022-09-12T18:14:31.270Z,29.65
2022-09-12T18:17:04.347Z,29.63
2022-09-12T18:19:33.596Z,29.57
2022-09-12T18:22:01.835Z,29.51
2022-09-12T18:24:29.368Z,29.46
2022-09-12T18:26:57.038Z,29.46
2022-09-12T18:29:28.223Z,29.45
2022-09-12T18:31:56.537Z,29.43
2022-09-12T18:34:24.022Z,29.36
2022-09-12T18:36:55.888Z,29.37
2022-09-12T18:39:27.636Z,29.36
2022-09-12T18:41:55.702Z,29.37
2022-09-12T18:44:23.346Z,29.38
2022-09-12T18:46:51.003Z,29.34
2022-09-12T18:49:18.788Z,29.36
2022-09-12T18:51:46.501Z,29.34
2022-09-12T18:54:15.972Z,29.33
2022-09-12T18:56:44.528Z,29.29
2022-09-12T18:59:16.169Z,29.28
2022-09-12T19:01:44.651Z,29.25
2022-09-12T19:04:14.285Z,29.26
2022-09-12T19:06:43.925Z,29.25
2022-09-12T19:09:15.566Z,29.22
2022-09-12T19:11:49.049Z,29.23
2022-09-12T19:14:22.898Z,29.18
2022-09-12T19:16:52.520Z,29.17
2022-09-12T19:19:27.628Z,29.19
2022-09-12T19:21:55.608Z,29.18
2022-09-12T19:24:24.188Z,29.11
2022-09-12T19:26:59.126Z,29.10
2022-09-12T19:29:27.250Z,29.06
2022-09-12T19:31:56.824Z,29.09
2022-09-12T19:34:25.189Z,29.04
2022-09-12T19:36:59.966Z,29.08
2022-09-12T19:39:27.482Z,29.08
2022-09-12T19:41:54.901Z,29.06
2022-09-12T19:44:28.445Z,29.09
2022-09-12T19:46:57.546Z,29.07
2022-09-12T19:49:29.062Z,29.01
2022-09-12T19:52:01.160Z,28.91
2022-09-12T19:54:35.279Z,28.78
2022-09-12T19:57:04.056Z,28.70
2022-09-12T19:59:35.539Z,28.65
2022-09-12T20:02:04.260Z,28.60
2022-09-12T20:04:40.533Z,28.66
2022-09-12T20:07:13.445Z,28.62
2022-09-12T20:09:42.023Z,28.65
2022-09-12T20:12:09.347Z,28.66
2022-09-12T20:14:36.827Z,28.62
2022-09-12T20:17:18.341Z,28.64
2022-09-12T20:20:08.976Z,28.67
2022-09-12T20:22:40.724Z,28.70
2022-09-12T20:25:08.576Z,28.77
2022-09-12T20:27:36.132Z,28.80
2022-09-12T20:30:04.487Z,28.79
2022-09-12T20:32:35.402Z,28.85
2022-09-12T20:35:03.491Z,28.87
2022-09-12T20:37:43.186Z,28.90
2022-09-12T20:40:12.735Z,28.88
2022-09-12T20:42:48.504Z,28.87
2022-09-12T20:45:16.228Z,28.88
2022-09-12T20:47:44.762Z,28.85
2022-09-12T20:50:12.346Z,28.86
2022-09-12T20:52:40.631Z,28.85
2022-09-12T20:55:09.066Z,28.77
2022-09-12T20:57:36.615Z,28.74
2022-09-12T21:00:07.069Z,28.74
2022-09-12T21:02:34.712Z,28.71
2022-09-12T21:05:02.350Z,28.69
2022-09-12T21:07:31.117Z,28.63
2022-09-12T21:09:58.658Z,28.62
2022-09-12T21:12:28.563Z,28.60
2022-09-12T21:14:56.108Z,28.57
2022-09-12T21:17:32.520Z,28.59
2022-09-12T21:20:00.769Z,28.57
2022-09-12T21:22:28.210Z,28.58
2022-09-12T21:25:07.708Z,28.58
2022-09-12T21:27:39.526Z,28.54
2022-09-12T21:30:13.011Z,28.55
2022-09-12T21:32:41.643Z,28.51
2022-09-12T21:35:09.836Z,28.52
2022-09-12T21:37:37.578Z,28.48
2022-09-12T21:40:06.228Z,28.41
2022-09-12T21:42:33.884Z,28.42
2022-09-12T21:45:01.345Z,28.47
2022-09-12T21:47:28.997Z,28.44
2022-09-12T21:49:57.939Z,28.45
2022-09-12T21:52:25.251Z,28.44
2022-09-12T21:54:52.745Z,28.44
2022-09-12T21:57:20.161Z,28.44
2022-09-12T21:59:47.880Z,28.42
2022-09-12T22:02:25.218Z,28.39
2022-09-12T22:04:53.055Z,28.34
2022-09-12T22:07:22.681Z,28.28
2022-09-12T22:09:50.126Z,28.29
2022-09-12T22:12:19.991Z,28.23
2022-09-12T22:14:47.256Z,28.22
2022-09-12T22:17:15.520Z,28.30
2022-09-12T22:19:42.825Z,28.28
2022-09-12T22:22:37.559Z,28.26
2022-09-12T22:25:05.893Z,28.08
2022-09-12T22:27:33.545Z,28.08
2022-09-12T22:30:01.007Z,28.05
2022-09-12T22:32:28.671Z,27.99
2022-09-12T22:34:56.019Z,27.97
2022-09-12T22:37:23.354Z,27.85
2022-09-12T22:39:50.713Z,27.81
2022-09-12T22:42:18.500Z,27.85
2022-09-12T22:44:47.570Z,27.81
2022-09-12T22:47:15.326Z,27.83
2022-09-12T22:49:42.849Z,27.83
2022-09-12T22:52:10.421Z,27.83
2022-09-12T22:54:37.975Z,27.82
2022-09-12T22:57:06.615Z,27.84
2022-09-12T22:59:37.795Z,27.82
2022-09-12T23:02:06.511Z,27.75
2022-09-12T23:04:34.064Z,27.81
2022-09-12T23:07:02.180Z,27.82
2022-09-12T23:09:33.332Z,27.85
2022-09-12T23:12:04.605Z,27.82
2022-09-12T23:14:32.462Z,27.85
2022-09-12T23:16:59.930Z,27.89
2022-09-12T23:19:27.719Z,27.88
2022-09-12T23:21:55.592Z,27.83
2022-09-12T23:24:23.286Z,27.88
2022-09-12T23:26:51.220Z,27.88
2022-09-12T23:29:19.374Z,27.87
2022-09-12T23:31:47.599Z,27.89
2022-09-12T23:34:15.645Z,27.79
2022-09-12T23:36:43.218Z,27.89
2022-09-12T23:39:10.966Z,27.90
2022-09-12T23:41:38.741Z,27.82
2022-09-12T23:44:06.857Z,27.89
2022-09-12T23:46:36.554Z,27.89
2022-09-12T23:49:04.796Z,27.90
2022-09-12T23:51:33.187Z,27.86
2022-09-12T23:54:00.594Z,27.73
2022-09-12T23:56:28.494Z,27.65
2022-09-12T23:58:56.028Z,27.62
